Weather observations for the past three days for
Belen Regional Airport
Metric (Imperial)
Date Time (mdt) Wind (kph) Vis. (km) Weather Sky Cond. Temperature (ºC) Relative Humidity Wind Chill (°C) Heat Index (°C) Pressure Precipitation (cm)
Air Dwpt 6 hour altimeter (cm) sea level (mb) 1 hr 3 hr 6 hr
Max. Min.
08 15:15 N 17 G 30 16.09 Fair CLR 28.7 -6.7 9% 27 76.12 0.0
08 14:55 N 20 16.09 Fair CLR 28.9 -6.6 9% 27 76.12 0.0
08 14:35 N 19 G 33 16.09 Fair CLR 28.6 -6.4 10% 27 76.17 0.0
08 14:15 NW 13 G 26 16.09 Fair CLR 28 -6.3 10% 27 76.2 0.0
08 13:55 NW 15 G 31 16.09 Fair CLR 27.7 -6.4 10% 26 76.2 0.0
08 13:35 N 17 G 33 16.09 Fair CLR 27.6 -6.5 10% 26 76.23 0.0
08 13:15 NW 22 G 37 16.09 Fair CLR 27.7 -6.3 10% 26 76.23 0.0
08 12:55 N 17 G 31 16.09 Fair CLR 27.2 -6.3 11% 26 76.25 0.0
08 12:35 N 17 G 31 16.09 Fair CLR 26.5 -6.5 11% 26 76.28 0.0
08 12:15 NW 7 16.09 Fair CLR 26.1 -6.5 11% 25 76.3 0.0
08 11:55 N 11 16.09 Fair CLR 25.2 -6.5 25.3 5.6 12% 25 76.3 0.0
08 11:35 N 9 16.09 Fair CLR 24.9 -6.7 12% 24 76.33 0.0
08 11:15 Calm 16.09 Fair CLR 23.4 -7.1 12% 76.38 0.0
08 10:55 E 9 16.09 Fair CLR 23.1 -7.3 13% 76.38 0.0
08 10:35 NE 9 16.09 Fair CLR 22.9 -7.5 12% 76.38 0.0
08 10:15 Calm 16.09 Fair CLR 21.5 -7.9 13% 76.4 0.0
08 09:55 Calm 16.09 Fair CLR 21.4 -8 13% 76.4 0.0
08 09:35 NW 11 16.09 Fair CLR 20.6 -8.7 13% 76.4 0.0
08 09:15 NW 13 16.09 Fair CLR 19.7 -9.2 13% 76.4 0.0
08 08:55 NW 9 16.09 Fair CLR 18 -9.6 14% 76.43 0.0
08 08:35 NW 13 16.09 Fair CLR 17.2 -10 15% 76.43 0.0
08 08:15 NW 11 16.09 Fair CLR 16.7 -10.2 15% 76.4 0.0
08 07:55 E 6 16.09 Fair CLR 15.9 -10.2 16% 76.4 0.0
08 07:35 Calm 16.09 Fair CLR 13.1 -11 18% 76.4 0.0
08 07:15 Calm 16.09 Fair CLR 10.7 -11.5 20% 76.38 0.0
08 06:55 Calm 16.09 Fair CLR 7.5 -12.5 23% 76.38 0.0
08 06:35 NE 6 16.09 Fair CLR 6 -13 24% 76.35 0.0
08 06:15 N 6 16.09 Fair CLR 7.9 -12.3 23% 76.33 0.0
08 05:55 NW 6 16.09 Fair CLR 8.5 -12.9 12.3 5.2 21% 76.3 0.0
08 05:35 Calm 16.09 Fair CLR 7.4 -13.3 22% 76.3 0.0
08 05:15 N 6 16.09 Fair CLR 5.2 -13.8 24% 76.3 0.0
08 04:55 NW 7 16.09 Fair CLR 5.7 -13.6 24% 4 76.3 0.0
08 04:35 N 9 16.09 Fair CLR 6.5 -13.7 22% 5 76.3 0.0
08 04:15 N 6 16.09 Fair CLR 7.7 -14 20% 76.28 0.0
08 03:55 Calm 16.09 Fair CLR 7 -13.5 22% 76.25 0.0
08 03:35 Calm 16.09 Fair CLR 6.6 -14.4 21% 76.25 0.0
08 03:15 NE 6 16.09 Fair CLR 8.6 -13.7 19% 76.25 0.0
08 02:55 NW 7 16.09 Fair CLR 6.1 -14.6 21% 5 76.25 0.0
08 02:35 N 6 16.09 Fair CLR 7.9 -14.9 18% 76.28 0.0
08 02:15 NW 6 16.09 Fair CLR 7.7 -15.2 18% 76.28 0.0
08 01:55 NE 6 16.09 Fair CLR 8.6 -15.2 17% 76.28 0.0
08 01:35 SE 6 16.09 Fair CLR 9.8 -14.8 16% 76.28 0.0
08 01:15 Calm 16.09 Fair CLR 9.6 -14.8 16% 76.28 0.0
08 00:55 Calm 16.09 Fair CLR 10.9 -14.5 15% 76.28 0.0
08 00:35 Calm 16.09 Fair CLR 12.1 -14.8 14% 76.28 0.0
08 00:15 Calm 16.09 Fair CLR 9.4 -15.2 16% 76.28 0.0
07 23:55 NE 6 16.09 Fair CLR 9.9 -15 24.3 9.9 16% 76.28 0.0
07 23:35 Calm 16.09 Fair CLR 13.6 -14.5 13% 76.28 0.0
07 23:15 Calm 16.09 Fair CLR 11.6 -15.3 14% 76.3 0.0
07 22:55 W 9 16.09 Fair CLR 14.3 -14.8 12% 76.3 0.0
07 22:35 W 6 16.09 Fair CLR 14.5 -15 12% 76.3 0.0
07 22:15 SW 11 16.09 Fair CLR 13.5 -15.1 12% 76.3 0.0
07 21:55 S 9 16.09 Fair CLR 15.7 -14.2 11% 76.28 0.0
07 21:35 S 7 16.09 Fair CLR 15.7 -13.5 12% 76.25 0.0
07 21:15 S 7 16.09 Fair CLR 15.4 -13.5 12% 76.25 0.0
07 20:55 S 9 16.09 Fair CLR 15.6 -13 13% 76.23 0.0
07 20:35 S 11 16.09 Fair CLR 16.6 -12.7 12% 76.2 0.0
07 20:15 S 9 16.09 Fair CLR 17.7 -12.7 11% 76.2 0.0
07 19:55 SE 7 16.09 Fair CLR 20.9 -12.5 9% 76.17 0.0
07 19:35 SE 6 16.09 Fair CLR 21.8 -12.4 9% 76.15 0.0
07 19:15 E 9 16.09 Fair CLR 22.7 -12 9% 76.15 0.0
07 18:55 E 11 16.09 Fair CLR 23.2 -11.8 9% 76.15 0.0
07 18:35 E 7 16.09 Fair CLR 23.7 -12.2 8% 76.15 0.0
07 18:15 SE 6 16.09 Fair CLR 23.7 -12.8 8% 76.15 0.0
07 17:55 NE 9 16.09 Fair CLR 24.3 -12.2 24.5 17.7 8% 24 76.17 0.0
07 17:35 N 7 16.09 Fair CLR 24.5 -13.6 7% 24 76.17 0.0
07 17:15 NE 11 16.09 Fair CLR 24.1 -13.3 7% 24 76.2 0.0
07 16:55 NE 7 16.09 Fair CLR 23.8 -13.2 7% 76.2 0.0
07 16:35 N 6 16.09 Fair CLR 23.2 -13.5 8% 76.23 0.0
07 16:15 E 6 16.09 Fair CLR 23.1 -12 9% 76.25 0.0
07 15:55 NW 6 16.09 Fair CLR 23 -11.9 9% 76.28 0.0
07 15:35 N 7 16.09 Fair CLR 23.1 -12 9% 76.3 0.0
07 15:15 W 9 16.09 Fair CLR 22.3 -10.5 10% 76.35 0.0
07 14:15 Calm 16.09 Fair CLR 21.6 -10 11% 76.4 0.0
07 13:55 N 17 16.09 Fair CLR 20.8 -9.7 12% 76.43 0.0
07 13:35 Calm 16.09 Fair CLR 20.5 -9.7 12% 76.45 0.0
07 13:15 N 11 16.09 Fair CLR 19.9 -8.8 14% 76.5 0.0
07 12:55 NW 9 G 30 16.09 Fair CLR 19.8 -8.5 14% 76.5 0.0
07 12:35 N 17 16.09 Fair CLR 19 -8.8 14% 76.56 0.0
07 12:15 N 7 16.09 NULL NULL 18.7 -8.1 15% 76.58 0.0
07 11:55 NE 6 0.00 NULL NULL 17.7 -7.9 17.7 2.6 17% 76.58 0.0
07 11:35 W 11 16.09 Fair CLR 17.2 -8 17% 76.61 0.0
07 11:15 NW 13 16.09 Fair CLR 17.3 -7.8 17% 76.63 0.0
07 10:55 Calm 16.09 Fair CLR 16.3 -5.4 22% 76.66 0.0
07 10:35 NW 9 16.09 Fair CLR 16.4 -3.6 25% 76.66 0.0
07 10:15 NW 9 G 15 16.09 Fair CLR 15 -3 29% 76.68 0.0
07 09:55 NW 13 16.09 Fair CLR 14.1 -2.4 32% 76.68 0.0
07 09:35 N 15 G 26 16.09 Fair CLR 13.7 -2 34% 76.71 0.0
07 09:15 N 17 16.09 Fair CLR 12.6 -1.8 37% 76.71 0.0
07 08:55 N 15 16.09 Fair CLR 11.7 -1.5 40% 76.73 0.0
07 08:35 N 11 16.09 Fair CLR 11 -1.1 43% 76.76 0.0
07 08:15 N 17 16.09 Fair CLR 10.3 -1.3 45% 76.73 0.0
07 07:55 N 15 16.09 Fair CLR 9.1 -2.6 44% 7 76.73 0.0
07 07:35 N 13 16.09 Fair CLR 8.1 -4.4 41% 6 76.71 0.0
07 07:15 N 7 16.09 Fair CLR 6.9 -6.5 38% 6 76.71 0.0
07 06:55 NW 9 16.09 Fair CLR 4 -8.1 41% 2 76.68 0.0
07 06:35 N 9 0.00 NULL NULL 3.6 -7.8 43% 1 76.68 0.0
07 06:15 NE 11 16.09 Fair CLR 3.5 -8.2 42% 1 76.68 0.0
07 05:55 NE 11 16.09 Fair CLR 3.1 -8.1 10.5 2.9 44% 0 76.66 0.0
07 05:35 NE 11 16.09 Fair CLR 3.6 -8.1 42% 1 76.68 0.0
07 05:15 NE 13 16.09 Fair CLR 3.7 -8.4 41% 1 76.66 0.0
07 04:55 NE 7 16.09 Fair CLR 5.1 -9 36% 4 76.68 0.0
07 04:35 NE 6 16.09 Fair CLR 5.8 -9 34% 76.68 0.0
07 04:15 Calm 16.09 Fair CLR 5.9 -8.3 36% 76.66 0.0
07 03:55 N 13 16.09 Fair CLR 7.2 -7.8 34% 5 76.66 0.0
07 03:35 NW 13 16.09 Fair CLR 7.5 -8.4 32% 5 76.63 0.0
07 03:15 NW 13 16.09 Fair CLR 7.4 -7.6 34% 5 76.63 0.0
07 02:55 NW 11 16.09 Fair CLR 6.9 -7.4 36% 5 76.63 0.0
07 02:35 N 7 16.09 Fair CLR 7.6 -7.8 33% 7 76.63 0.0
07 02:15 NW 11 16.09 Fair CLR 8 -7.6 33% 6 76.61 0.0
07 01:55 NW 13 16.09 Fair CLR 8.1 -7.2 33% 6 76.63 0.0
07 01:35 NW 11 16.09 Fair CLR 9 -5.6 35% 8 76.63 0.0
07 01:15 NW 13 16.09 Fair CLR 8 -5 40% 6 76.63 0.0
07 00:55 NW 13 0.00 NULL NULL 8.9 -4.5 39% 7 76.61 0.0
07 00:35 Calm 0.00 NULL NULL 9.7 -4 38% 0 0.0
07 00:15 W 9 0.00 NULL NULL 9.9 -2.1 43% 9 76.58 0.0
06 23:55 N 13 0.00 NULL NULL 10.3 -1.5 21.1 10.3 44% 76.58 0.0
06 23:15 N 7 0.00 NULL NULL 11.7 -1.6 40% 76.56 0.0
06 22:55 N 9 0.00 NULL NULL 12.6 -1.5 38% 76.53 0.0
06 22:15 Calm 0.00 NULL NULL 12.6 -1.4 38% 76.5 0.0
06 21:55 Calm 0.00 NULL NULL 13.3 -1.3 37% 76.48 0.0
06 20:55 N 13 0.00 NULL NULL 14.9 -1.1 34% 76.4 0.0
06 20:35 Calm 0.00 NULL NULL 15.6 -1 32% 0 0.0
06 19:55 N 28 0.00 NULL NULL 16.4 -0.8 31% 76.3 0.0
06 19:35 Calm 0.00 NULL NULL 17.2 -0.5 30% 76.28 0.0
06 18:55 N 24 0.00 NULL NULL 18.3 -0.7 28% 76.23 0.0
06 18:35 Calm 0.00 NULL NULL 19.3 -2.3 23% 76.17 0.0
06 17:55 N 24 0.00 NULL NULL 21.4 -5 17% 76.12 0.0
06 17:35 W 28 0.00 NULL NULL 23.2 -6.9 13% 76.1 0.0
06 16:55 W 35 0.00 Breezy NULL 22 -5.7 15% 76.07 0.0
06 16:35 W 33 0.00 Breezy NULL 22.7 -4.7 16% 76.07 0.0
06 15:55 W 19 0.00 NULL NULL 21.5 -5.6 16% 76.07 0.0
06 15:35 W 26 0.00 NULL NULL 21.6 -5.6 16% 76.07 0.0
06 14:55 W 22 0.00 NULL NULL 21.6 -4.9 17% 76.1 0.0
06 14:35 W 19 0.00 NULL NULL 22.3 -5.1 16% 76.12 0.0
06 13:55 W 26 16.09 NULL NULL 21.6 -5 16% 76.12 0.0
06 13:35 W 17 0.00 NULL NULL 20.3 -5.1 18% 76.15 0.0
06 12:55 W 26 G 41 16.09 Partly Cloudy SCT090 20.8 -5.4 17% 76.2 0.0
06 12:35 W 11 16.09 Mostly Cloudy BKN090 19.7 -3.3 21% 76.2 0.0
06 12:15 NW 11 16.09 Mostly Cloudy SCT075 BKN090 18.8 -3.9 21% 76.23 0.0
06 11:55 W 15 16.09 Fair CLR 18.7 -3 19.3 5 23% 76.23 0.0
06 11:35 W 15 16.09 Fair CLR 19.3 -2.5 23% 76.25 0.0
06 11:15 NW 17 G 31 16.09 Fair CLR 18.6 -2.7 24% 76.25 0.0
06 10:55 NW 17 G 26 16.09 Fair CLR 17.6 -2.3 26% 76.25 0.0
06 10:35 NW 15 G 28 16.09 Fair CLR 16.9 -2.2 27% 76.25 0.0
06 10:15 W 17 G 30 16.09 Fair CLR 16.2 -2.4 28% 76.25 0.0
06 09:55 W 15 16.09 Fair CLR 15.6 -2.1 30% 76.25 0.0
06 09:35 W 19 G 26 16.09 Fair CLR 14.5 -2.3 32% 76.28 0.0
06 09:15 W 22 16.09 Fair CLR 14 -1.9 34% 76.28 0.0
06 08:55 SW 15 16.09 Fair CLR 12.9 -1.1 38% 76.3 0.0
06 08:35 SW 13 16.09 Fair CLR 12 -1.2 40% 76.3 0.0
06 08:15 SW 11 16.09 Fair CLR 11.4 -0.9 43% 76.33 0.0
06 07:55 SW 11 16.09 Fair CLR 10.9 -0.3 46% 76.33 0.0
06 07:35 SW 9 16.09 Fair CLR 9.5 0 52% 8 76.3 0.0
06 07:15 SW 9 16.09 Fair CLR 7.6 0.5 61% 6 76.3 0.0
06 06:55 Calm 16.09 Fair CLR 5.8 0.5 69% 76.3 0.0
06 06:35 SE 7 16.09 Fair CLR 5.1 0 70% 4 76.28 0.0
06 06:15 SW 9 16.09 Fair CLR 5.5 0 68% 4 76.25 0.0
06 05:55 SW 13 16.09 Fair CLR 5.9 0 66% 3 76.25 0.0
06 05:35 W 15 16.09 Fair CLR 6.3 0.1 65% 4 76.23 0.0
06 05:15 W 11 16.09 Fair CLR 7.1 0.1 61% 5 76.23 0.0
06 04:55 NW 7 16.09 Fair CLR 5.4 0 68% 4 76.2 0.0
06 04:35 SW 15 16.09 Fair CLR 5.7 0.3 69% 3 76.17 0.0
06 04:15 SW 15 16.09 Fair CLR 4.2 0 74% 1 76.15 0.0
06 03:55 W 11 16.09 Fair CLR 4.6 0 72% 2 76.15 0.0
06 03:35 W 9 16.09 Fair CLR 3.8 -0.1 76% 2 76.15 0.0
06 03:15 W 7 0.00 NULL NULL 6.3 0.3 66% 5 76.15 0.0
06 02:55 W 6 16.09 NULL NULL 4.9 0.8 75% 76.15 0.0
06 02:35 Calm 0.00 NULL NULL 7.2 2.1 70% 76.15 0.0
06 02:15 Calm 0.00 NULL NULL 7.1 2.5 73% 0 0.0
06 01:35 Calm 16.09 Fair CLR 8.8 3.4 69% 76.15 0.0
06 01:15 Calm 16.09 Partly Cloudy SCT100 8.7 3.3 69% 76.15 0.0
06 00:55 N 6 16.09 Mostly Cloudy BKN100 9.9 3.7 66% 76.15 0.0
06 00:35 Calm 16.09 Partly Cloudy SCT110 9 4.2 72% 76.15 0.0
05 23:55 Calm 16.09 Mostly Cloudy SCT085 BKN120 10.2 4.5 17.2 10.2 68% 76.12 0.0
05 23:35 NE 7 16.09 Overcast SCT070 BKN085 OVC120 11.2 4.6 64% 76.12 0.0
05 23:15 NE 9 16.09 Overcast SCT090 OVC110 11 4.5 65% 76.12 0.0
05 22:55 N 11 16.09 Overcast BKN090 OVC110 11.5 4.8 64% 76.1 0.0
05 22:35 N 15 16.09 Overcast BKN080 OVC100 12 5 63% 76.07 0.0
05 22:15 N 9 16.09 Overcast BKN080 OVC100 12.5 4.6 59% 76.07 0.0
05 21:55 NW 11 G 30 16.09 Overcast SCT045 BKN070 OVC120 13.8 4.4 53% 76.07 0.0
05 21:35 NW 15 16.09 Mostly Cloudy SCT100 BKN120 14.4 4.4 51% 76.02 0.0
05 21:15 W 9 16.09 Mostly Cloudy SCT100 BKN120 12.9 4.5 57% 75.97 0.0
05 20:55 Calm 16.09 Overcast BKN100 OVC120 13.6 5.1 57% 75.95 0.0
05 20:35 S 6 16.09 Partly Cloudy SCT070 SCT080 SCT110 13.9 5 55% 75.9 0.0
05 20:15 S 9 16.09 Mostly Cloudy SCT060 SCT070 BKN100 15 5.1 52% 75.9 0.0
05 19:55 SE 7 16.09 Mostly Cloudy SCT055 SCT080 BKN110 15.5 4.5 48% 75.87 0.0
05 19:35 E 9 16.09 Overcast SCT080 BKN090 OVC110 16.1 4.5 46% 75.84 0.0
05 19:15 N 7 16.09 Overcast OVC090 16.5 4 44% 75.84 0.0
05 18:55 NE 7 16.09 Overcast OVC100 16.4 4.2 45% 75.82 0.0
05 18:35 Calm 16.09 Mostly Cloudy BKN100 16.5 4.1 44% 75.82 0.0
05 18:15 NE 9 16.09 Fair CLR 17.1 4.6 44% 75.82 0.0
05 17:55 N 7 16.09 Fair CLR 17.1 4.5 18.3 14 43% 75.79 0.0 0.03
05 17:35 N 13 16.09 Light Rain SCT031 SCT044 BKN085 16.4 6 50% 75.82 0.0
05 17:15 N 20 16.09 Light Rain SCT033 SCT050 BKN095 15.8 5.3 50% 75.82 0.0
05 16:55 N 17 G 26 16.09 Partly Cloudy SCT110 17.1 4.8 44% 75.84 0.0
05 16:35 N 26 G 35 16.09 Partly Cloudy SCT120 17.2 4.7 44% 75.84 0.0
05 16:15 N 30 G 37 16.09 Partly Cloudy SCT060 17.3 5.9 47% 75.87 0.0
05 15:55 NW 19 G 31 16.09 Mostly Cloudy SCT047 BKN060 BKN070 16.7 7 53% 75.9 0.0
05 15:35 NW 26 G 37 16.09 Rain SCT040 BKN060 OVC110 15.7 6.8 56% 75.9 0.0
Date Time (mdt) Wind (kph) Vis. (km) Weather Sky Cond. Air Dwpt Max. Min. Relative Humidity Wind Chill (°C) Heat Index (°C) altimeter (cm) sea level (mb) 1 hr 3 hr 6 hr
6 hour
Temperature (ºC) Pressure Precipitation (cm)